Grand Canyon, AZ (86023)

7:18 PM MST on July 28, 2014 (GMT -0700)
Grand Canyon National Park (KGCN) Elev 6608 ft | 35.95 °N, 112.15 °W | Change Station
Active Advisory: Flash Flood Watch

Current weather conditions updated 24 minutes ago

Partly Cloudy
Partly Cloudy
73 °F
Feels Like 73 °F
N
6
Wind Variable Wind from WNW

Tomorrow is forecast to be Warmer than today. Partly cloudy with a stray thunderstorm.

Today
High -- | Low -- °F
--% Chance of Precip.
Yesterday
High -- | Low -- °F
Precip. -- in
5:32 AM 7:36 PM
Waxing Crescent, 4% visible
Pressure 30.09 in
Visibility 10.0 miles
Clouds Few 12000 ft
Dew Point 48 °F
Humidity 41%
Rainfall 0.00 in
Snow Depth Not available.
UV 0 out of 12
Pollen 2.80 out of 12
Air Quality Not available.
Flu Activity Not available.
METAR KGCN 290154Z 29005KT 10SM FEW120 23/09 A3036 RMK AO2 SLP189 T02280089

More Conditions Fewer Conditions

Pressure 30.09 in
Visibility 10.0 miles
Clouds Few 12000 ft
Dew Point 48 °F
Humidity 41%
Rainfall 0.00 in
Snow Depth Not available.
UV 0 out of 12
Pollen 2.80 out of 12
Air Quality Not available.
Flu Activity Not available.
METAR KGCN 290154Z 29005KT 10SM FEW120 23/09 A3036 RMK AO2 SLP189 T02280089

More Conditions Fewer Conditions

10-Day Weather Forecast

Almanac

Astronomy

Jul. 28, 2014 Rise Set
Actual Time 5:32 AM MST 7:36 PM MST
Civil Twilight 5:04 AM MST 8:05 PM MST
Nautical Twilight 4:29 AM MST 8:40 PM MST
Astronomical Twilight 3:51 AM MST 9:17 PM MST
Moon 7:12 AM MST (7/28) 8:26 PM MST (7/28)
Length of Visible Light 15h 01m
Length of Day
14h 04m
Tomorrow will be 1m 37s shorter.
Waxing Crescent, 4% of the Moon is Illuminated
Today
Waxing Crescent
Aug 3
First Quarter
Aug 10
Full
Aug 17
Last Quarter
Aug 25
New

Today's Extremes

State Highs State Lows

Community

WunderPhotos

Upload Photos

1,738,587 photos uploaded!

Nearby

Snow Depth

Station Depth Elevation
Snowslide Canyon 0 in 9730 ft
White Horse Lake 0 in 7180 ft
Maverick Fork 0 in 9200 ft
Beaver Head 1 in 7990 ft

Earthquake Activity

City Distance Mag. Time & Date
No recent earthquake activity has been reported nearby.
Minimum magnitude displayed is 2.5.

Coastal Water Temperatures

Place Temperature
No Stations Reporting

Nearby Weather Stations

Station Location Temp. Heat Index Dew Point Humidity Wind Precip. Elev Updated Type
APRSWXNET Phantom Ranch AZ US, Grand Canyon, AZ 82 °F 82 °F 60 °F 48% North  at  0 mph 0.78 in / hr 2549 ft 6:25 PM MST MADIS

Show More Stations Show Fewer Stations